Time;durP1;ratioP1;P1;durP2;ratioP2;P2;SDS_P1;SDS_P2;PMS_P1;PMS_P2;Temp;Humidity;BMP_temperature;BMP_pressure;BME280_temperature;BME280_humidity;BME280_pressure;Samples;Min_cycle;Max_cycle;Signal;HPM_P1;HPM_P2
2021/12/21 00:00:23;;;;;;;11.07;6.70;;;6.30;65.30;;;9.12;51.80;102747.13;4861582;29;20211;-60
2021/12/21 00:02:54;;;;;;;12.57;7.70;;;6.30;65.10;;;9.16;51.19;102743.28;4861007;29;20255;-60
2021/12/21 00:05:27;;;;;;;9.97;6.40;;;6.40;65.00;;;9.17;51.27;102744.97;4861481;29;20206;-59
2021/12/21 00:07:59;;;;;;;11.23;6.80;;;6.40;65.20;;;9.15;51.16;102746.88;4861402;29;20205;-60
2021/12/21 00:10:31;;;;;;;12.83;7.40;;;6.40;64.90;;;9.17;51.13;102738.88;4861613;29;20209;-61
2021/12/21 00:13:03;;;;;;;17.87;9.20;;;6.40;64.70;;;9.15;51.31;102741.59;4860897;29;20240;-61
2021/12/21 00:23:43;;;;;;;11.90;7.87;;;6.10;65.00;;;8.87;51.56;102742.00;4859612;29;20689;-60
2021/12/21 00:26:15;;;;;;;13.63;7.77;;;6.00;65.30;;;8.83;51.63;102736.16;4861206;29;20553;-61
2021/12/21 00:28:55;;;;;;;16.23;10.00;;;6.00;65.20;;;8.83;51.74;102735.31;4860741;29;20205;-60
2021/12/21 00:31:25;;;;;;;13.40;8.23;;;6.10;65.10;;;8.82;51.43;102729.22;4860709;29;20275;-61
2021/12/21 00:33:54;;;;;;;15.10;8.37;;;6.10;65.00;;;8.83;51.72;102735.31;4860593;29;20227;-61
2021/12/21 00:36:24;;;;;;;13.80;9.10;;;6.10;64.80;;;8.84;51.56;102731.75;4861129;29;20276;-59
2021/12/21 00:38:55;;;;;;;15.83;8.70;;;6.10;64.30;;;8.85;51.38;102730.78;4860811;29;20416;-56
2021/12/21 00:41:24;;;;;;;11.20;8.63;;;6.10;64.20;;;8.84;51.21;102737.81;4859670;29;20229;-60
2021/12/21 00:43:53;;;;;;;13.13;9.20;;;6.10;64.10;;;8.84;50.82;102734.38;4860652;29;20232;-60
2021/12/21 00:46:21;;;;;;;15.20;8.97;;;6.10;64.10;;;8.85;51.15;102722.91;4860893;29;20201;-59
2021/12/21 00:48:51;;;;;;;13.60;7.87;;;6.10;64.50;;;8.85;51.30;102717.66;4860098;29;20220;-60
2021/12/21 00:51:22;;;;;;;12.17;7.70;;;6.10;64.50;;;8.87;51.03;102715.75;4842228;29;20203;-60
2021/12/21 00:53:50;;;;;;;12.73;8.23;;;6.10;64.40;;;8.89;51.02;102723.53;4842158;29;20683;-60
2021/12/21 00:56:18;;;;;;;12.67;8.80;;;6.10;64.40;;;8.87;51.02;102726.25;4842413;29;20199;-60
2021/12/21 00:58:45;;;;;;;12.43;8.10;;;6.10;64.00;;;8.85;51.05;102720.28;4841982;29;20223;-61
2021/12/21 01:01:14;;;;;;;15.67;9.73;;;6.10;64.00;;;8.78;51.19;102721.69;4845489;29;20222;-61
2021/12/21 01:03:47;;;;;;;15.60;9.00;;;6.00;64.10;;;8.76;51.46;102723.59;4859973;29;20783;-60
2021/12/21 01:09:44;;;;;;;14.90;8.90;;;6.00;63.90;;;8.73;50.94;102721.19;4860527;29;20198;-60
2021/12/21 01:11:45;;;;;;;12.90;8.50;;;6.00;64.00;;;8.73;51.08;102721.19;4859363;29;20674;-61
2021/12/21 01:16:59;;;;;;;10.60;7.90;;;5.90;64.00;;;8.66;51.42;102717.34;4860340;29;20723;-61
2021/12/21 01:19:35;;;;;;;16.10;8.20;;;5.90;64.50;;;8.63;51.34;102723.66;4860314;29;20283;-61
2021/12/21 01:27:19;;;;;;;13.23;9.23;;;5.90;64.70;;;8.61;51.45;102719.47;4860412;29;20931;-61
2021/12/21 01:30:31;;;;;;;13.07;8.67;;;5.80;64.70;;;8.57;51.13;102718.03;4860362;29;20218;-62
2021/12/21 01:35:18;;;;;;;14.97;8.13;;;5.80;64.20;;;8.58;51.10;102719.72;4860024;29;20660;-62
2021/12/21 01:38:54;;;;;;;11.90;8.40;;;5.80;64.00;;;8.58;51.22;102703.97;4859937;29;20206;-60
2021/12/21 01:40:54;;;;;;;14.77;8.40;;;5.80;64.00;;;8.55;50.41;102719.94;4863356;29;20217;-62
2021/12/21 01:51:23;;;;;;;16.13;8.63;;;5.30;65.30;;;8.13;51.81;102718.56;4860023;29;20260;-60
2021/12/21 01:53:52;;;;;;;12.47;7.10;;;5.30;65.90;;;8.14;51.89;102715.88;4859349;29;20730;-60
2021/12/21 01:56:22;;;;;;;9.73;6.93;;;5.30;65.60;;;8.14;52.07;102715.88;4860153;29;20203;-61
2021/12/21 01:58:50;;;;;;;14.90;7.50;;;5.20;66.10;;;8.14;52.13;102710.63;4860041;29;20193;-59
2021/12/21 02:01:21;;;;;;;12.83;7.40;;;5.20;65.90;;;8.12;52.14;102707.28;4859735;29;20194;-60
2021/12/21 02:03:51;;;;;;;12.67;8.00;;;5.30;66.20;;;8.13;51.74;102711.56;4859611;29;20212;-61
2021/12/21 02:06:23;;;;;;;14.07;7.50;;;5.30;65.70;;;8.12;52.19;102702.03;4859767;29;20198;-61
2021/12/21 02:08:50;;;;;;;13.40;7.90;;;5.30;65.90;;;8.17;52.10;102694.69;4859896;29;20193;-60
2021/12/21 02:11:19;;;;;;;14.90;8.23;;;5.40;65.90;;;8.19;51.74;102707.66;4859478;29;20202;-61
2021/12/21 02:13:49;;;;;;;13.83;7.90;;;5.40;65.10;;;8.23;51.35;102698.63;4859175;29;20241;-61
2021/12/21 02:16:28;;;;;;;14.67;8.03;;;5.40;65.00;;;8.27;51.47;102699.28;4860299;29;20260;-61
2021/12/21 02:19:05;;;;;;;14.73;8.20;;;5.50;64.90;;;8.33;51.37;102693.56;4859825;29;20197;-61
2021/12/21 02:21:42;;;;;;;13.57;7.67;;;5.50;64.70;;;8.36;51.23;102688.13;4860564;29;20226;-61
2021/12/21 02:24:15;;;;;;;13.37;7.30;;;5.60;64.40;;;8.37;51.08;102701.09;4862215;29;20308;-59
2021/12/21 02:26:50;;;;;;;10.87;7.00;;;5.60;64.00;;;8.41;51.19;102693.88;4863160;29;20642;-61
2021/12/21 02:29:29;;;;;;;10.77;6.47;;;5.70;63.70;;;8.44;50.74;102696.28;4862735;29;20203;-58
2021/12/21 02:31:57;;;;;;;9.30;6.23;;;5.70;63.40;;;8.44;50.54;102702.34;4863144;29;20198;-61
2021/12/21 02:34:25;;;;;;;7.50;5.93;;;5.70;63.00;;;8.42;50.22;102698.16;4862741;29;20269;-60
2021/12/21 02:36:57;;;;;;;8.53;5.90;;;5.70;62.30;;;8.31;50.25;102695.47;4862951;29;20630;-61
2021/12/21 02:39:26;;;;;;;9.03;5.97;;;5.50;62.70;;;8.22;50.96;102696.13;4862703;29;20679;-60
2021/12/21 02:41:54;;;;;;;8.97;6.90;;;5.40;63.90;;;8.18;50.91;102688.47;4862998;29;20216;-59
2021/12/21 02:44:22;;;;;;;6.60;5.33;;;5.30;64.10;;;8.14;50.58;102689.63;4862124;29;20232;-61
2021/12/21 02:46:50;;;;;;;6.87;5.47;;;5.30;63.20;;;8.09;50.88;102691.75;4862824;29;20233;-61
2021/12/21 02:49:18;;;;;;;6.50;4.90;;;5.20;63.90;;;8.05;50.69;102692.09;4862713;29;20565;-61
2021/12/21 02:51:47;;;;;;;6.60;5.30;;;5.10;63.40;;;7.99;51.18;102690.72;4862785;29;20216;-60
2021/12/21 02:54:19;;;;;;;6.53;4.50;;;5.10;64.60;;;7.98;51.07;102682.97;4862720;29;20702;-60
2021/12/21 02:56:47;;;;;;;5.37;4.50;;;5.10;64.40;;;7.96;51.02;102675.22;4862519;29;20200;-59
2021/12/21 02:59:15;;;;;;;5.17;4.50;;;5.10;64.10;;;7.97;51.02;102676.91;4862607;29;20196;-59
2021/12/21 03:01:42;;;;;;;5.77;4.67;;;5.10;64.10;;;7.99;51.07;102669.75;4862168;29;20245;-60
2021/12/21 03:04:10;;;;;;;4.27;3.87;;;5.20;64.10;;;8.03;50.89;102670.38;4862192;29;20239;-60
2021/12/21 03:09:37;;;;;;;4.77;4.37;;;5.20;63.30;;;8.04;50.67;102667.66;4862517;29;20202;-61
2021/12/21 03:14:52;;;;;;;6.57;4.70;;;5.20;62.40;;;7.89;49.87;102657.44;4862373;29;20200;-60
2021/12/21 03:17:20;;;;;;;6.43;4.57;;;5.10;62.00;;;7.78;49.76;102655.56;4861051;29;20283;-61
2021/12/21 03:19:48;;;;;;;5.03;4.63;;;5.00;61.90;;;7.70;50.28;102657.88;4862142;29;20202;-61
2021/12/21 03:22:15;;;;;;;6.10;4.67;;;4.90;62.60;;;7.65;50.81;102664.41;4862188;29;20232;-61
2021/12/21 03:24:45;;;;;;;6.73;4.70;;;4.80;63.60;;;7.61;50.53;102661.16;4860631;29;20243;-58
2021/12/21 03:27:13;;;;;;;6.03;5.10;;;4.80;63.80;;;7.57;50.94;102657.09;4861860;29;20214;-60
2021/12/21 03:29:40;;;;;;;8.53;5.80;;;4.70;63.90;;;7.55;50.94;102661.59;4862219;29;20328;-59
2021/12/21 03:32:08;;;;;;;7.43;5.40;;;4.70;64.00;;;7.53;51.25;102666.09;4861922;29;20196;-60
2021/12/21 03:34:36;;;;;;;6.57;5.80;;;4.60;64.80;;;7.55;51.42;102664.22;4860679;29;20297;-59
2021/12/21 03:37:11;;;;;;;7.00;5.50;;;4.70;64.10;;;7.54;51.06;102662.53;4861314;29;20202;-63
2021/12/21 03:39:39;;;;;;;7.60;5.07;;;4.70;64.00;;;7.53;51.70;102666.09;4862179;29;20694;-60
2021/12/21 03:42:10;;;;;;;6.63;5.90;;;4.70;65.00;;;7.58;51.58;102657.94;4862005;29;20245;-62
2021/12/21 03:44:38;;;;;;;6.27;5.10;;;4.70;65.10;;;7.63;51.35;102666.31;4861408;29;20228;-61
2021/12/21 03:47:09;;;;;;;5.37;4.87;;;4.70;64.60;;;7.65;51.07;102654.78;4861806;29;20210;-63
2021/12/21 03:52:16;;;;;;;5.67;5.10;;;4.80;64.50;;;7.64;51.00;102663.56;4861392;29;20734;-60
2021/12/21 03:54:47;;;;;;;7.27;5.70;;;4.80;64.50;;;7.66;51.59;102664.28;4861228;29;20307;-62
2021/12/21 03:57:17;;;;;;;8.40;5.03;;;4.80;64.70;;;7.64;51.16;102654.88;4861832;29;20204;-60
2021/12/21 03:59:48;;;;;;;5.60;4.50;;;4.80;64.70;;;7.60;51.52;102656.88;4861461;29;20194;-61
2021/12/21 04:02:17;;;;;;;6.97;4.80;;;4.70;65.20;;;7.58;51.79;102664.00;4861996;29;20246;-62
2021/12/21 04:04:46;;;;;;;5.30;4.80;;;4.70;65.50;;;7.56;52.19;102665.88;4861241;29;20273;-61
2021/12/21 04:07:13;;;;;;;8.53;5.73;;;4.70;65.70;;;7.59;52.01;102665.66;4861431;29;20210;-60
2021/12/21 04:09:41;;;;;;;6.43;5.10;;;4.70;65.70;;;7.61;51.86;102657.72;4861446;29;20197;-60
2021/12/21 04:12:09;;;;;;;6.40;5.27;;;4.70;65.50;;;7.62;52.20;102651.50;4861298;29;20227;-59
2021/12/21 04:14:39;;;;;;;7.43;5.13;;;4.70;65.60;;;7.65;51.90;102661.78;4860852;29;20236;-61
2021/12/21 04:17:17;;;;;;;7.07;4.80;;;4.80;65.30;;;7.70;52.11;102660.50;4861511;29;20273;-59
2021/12/21 04:19:45;;;;;;;7.30;4.93;;;4.90;65.10;;;7.75;51.43;102661.00;4861288;29;20203;-60
2021/12/21 04:22:13;;;;;;;4.97;4.57;;;4.90;64.70;;;7.79;51.24;102661.66;4861279;29;20242;-61
2021/12/21 04:24:41;;;;;;;7.47;5.37;;;5.00;64.20;;;7.85;51.17;102656.81;4860295;29;20216;-61
2021/12/21 04:27:14;;;;;;;5.33;4.83;;;5.10;64.60;;;7.91;50.69;102652.91;4861075;29;20280;-62
2021/12/21 04:29:43;;;;;;;5.10;4.60;;;5.10;64.00;;;7.95;50.61;102663.06;4861194;29;20197;-60
2021/12/21 04:32:10;;;;;;;6.10;4.93;;;5.20;63.00;;;7.98;50.18;102657.63;4859824;29;20604;-60
2021/12/21 04:34:39;;;;;;;5.40;4.33;;;5.20;62.30;;;8.00;50.22;102650.47;4860770;29;20313;-59
2021/12/21 04:37:08;;;;;;;5.53;4.43;;;5.30;62.30;;;8.00;49.71;102655.72;4859878;29;20210;-61
2021/12/21 04:40:01;;;;;;;7.50;4.47;;;5.20;61.80;;;7.95;49.66;102652.59;4860886;29;20233;-60
2021/12/21 04:42:26;;;;;;;5.07;4.50;;;5.20;61.90;;;7.89;49.80;102658.25;4859903;29;20213;-60
2021/12/21 04:44:54;;;;;;;6.17;4.87;;;5.10;62.00;;;7.86;49.74;102655.88;4860594;29;20285;-61
2021/12/21 04:47:22;;;;;;;5.17;4.63;;;5.10;61.80;;;7.80;49.59;102656.28;4860962;29;20203;-60
2021/12/21 04:49:49;;;;;;;5.60;4.87;;;5.10;61.50;;;7.76;49.13;102661.84;4860575;29;20202;-58
2021/12/21 04:52:17;;;;;;;5.83;5.10;;;5.00;60.60;;;7.64;49.15;102662.72;4860586;29;20197;-60
2021/12/21 04:54:45;;;;;;;5.23;4.60;;;4.80;60.60;;;7.47;49.39;102658.66;4860526;29;20594;-59
2021/12/21 04:57:13;;;;;;;5.10;4.50;;;4.70;61.00;;;7.35;49.45;102655.13;4860999;29;20198;-60
2021/12/21 04:59:40;;;;;;;4.57;4.17;;;4.60;61.10;;;7.24;49.38;102654.19;4860610;29;20526;-61
2021/12/21 05:02:09;;;;;;;5.30;4.87;;;4.50;61.20;;;7.09;49.91;102657.84;4860960;29;20209;-60
2021/12/21 05:04:38;;;;;;;6.20;4.53;;;4.20;61.80;;;6.96;50.36;102654.41;4860656;29;20297;-60
2021/12/21 05:07:06;;;;;;;5.13;4.63;;;4.10;62.90;;;6.87;50.84;102652.41;4860496;29;20198;-61
2021/12/21 05:09:42;;;;;;;6.97;5.10;;;4.00;63.60;;;6.83;51.23;102664.84;4860823;29;20202;-58
2021/12/21 05:12:12;;;;;;;5.80;5.20;;;3.90;64.00;;;6.79;51.10;102659.00;4860593;29;20192;-61
2021/12/21 05:14:40;;;;;;;5.53;5.03;;;3.90;63.90;;;6.76;50.93;102660.97;4858837;29;20691;-59
2021/12/21 05:17:09;;;;;;;5.60;4.93;;;3.90;64.20;;;6.74;50.75;102665.47;4860634;29;20275;-60
2021/12/21 05:19:36;;;;;;;5.67;5.07;;;3.90;63.90;;;6.71;51.11;102661.28;4860271;29;20624;-63
2021/12/21 05:22:04;;;;;;;5.50;4.90;;;3.80;63.90;;;6.68;51.30;102655.41;4860575;29;20218;-61
2021/12/21 05:24:31;;;;;;;5.90;5.30;;;3.80;64.00;;;6.66;51.72;102662.50;4860323;29;20308;-58
2021/12/21 05:26:59;;;;;;;7.20;5.53;;;3.80;64.20;;;6.64;51.66;102665.22;4860507;29;20682;-62
2021/12/21 05:29:27;;;;;;;7.70;5.73;;;3.80;64.60;;;6.65;52.00;102656.47;4861037;29;20272;-62
2021/12/21 05:31:54;;;;;;;8.80;5.07;;;3.80;64.80;;;6.68;51.57;102652.81;4860070;29;20218;-63
2021/12/21 05:34:27;;;;;;;6.63;5.70;;;3.80;64.10;;;6.68;51.24;102652.81;4862190;29;20233;-63
2021/12/21 05:36:56;;;;;;;8.60;5.40;;;3.80;64.30;;;6.64;51.33;102649.53;4862036;29;20211;-61
2021/12/21 05:39:27;;;;;;;5.17;4.67;;;3.80;64.50;;;6.62;51.12;102651.44;4861589;29;20233;-61
2021/12/21 05:41:55;;;;;;;5.30;4.80;;;3.80;64.50;;;6.62;51.85;102650.59;4861435;29;20287;-61
2021/12/21 05:44:25;;;;;;;5.80;5.20;;;3.80;64.50;;;6.59;52.07;102649.00;4860857;29;20232;-62
2021/12/21 05:46:55;;;;;;;6.70;5.10;;;3.70;65.20;;;6.59;52.41;102656.84;4861431;29;20205;-60
2021/12/21 05:49:22;;;;;;;8.07;5.40;;;3.70;65.40;;;6.60;52.14;102653.31;4860663;29;20196;-60
2021/12/21 05:51:51;;;;;;;6.90;5.50;;;3.80;65.80;;;6.61;51.93;102654.13;4860921;29;20664;-60
2021/12/21 05:54:20;;;;;;;5.73;5.17;;;3.70;65.20;;;6.57;51.92;102653.50;4859274;29;20212;-62
2021/12/21 05:56:48;;;;;;;6.67;5.97;;;3.70;64.70;;;6.56;52.28;102656.22;4861109;29;20217;-61
2021/12/21 05:59:15;;;;;;;6.47;5.87;;;3.80;65.10;;;6.56;51.74;102651.81;4861857;29;20200;-60
2021/12/21 06:01:43;;;;;;;6.37;5.77;;;3.70;65.00;;;6.55;51.96;102663.22;4863140;29;20218;-61
2021/12/21 06:04:10;;;;;;;6.10;5.10;;;3.70;64.90;;;6.55;52.00;102655.38;4862802;29;20765;-61
2021/12/21 06:06:38;;;;;;;5.70;5.03;;;3.70;65.20;;;6.60;51.83;102657.69;4863377;29;20197;-61
2021/12/21 06:09:09;;;;;;;7.53;5.37;;;3.80;65.10;;;6.63;51.85;102658.31;4862201;29;20237;-62
2021/12/21 06:11:46;;;;;;;6.17;5.57;;;3.80;64.90;;;6.63;51.15;102658.31;4863356;29;20291;-61
2021/12/21 06:14:37;;;;;;;5.60;5.03;;;3.70;64.70;;;6.62;51.98;102661.03;4861848;29;20308;-63
2021/12/21 06:27:57;;;;;;;6.83;5.07;;;3.70;64.80;;;6.50;51.95;102652.22;4865828;29;20637;-61
2021/12/21 06:30:24;;;;;;;7.73;5.20;;;3.60;64.30;;;6.48;51.70;102651.50;4865358;29;20205;-61
2021/12/21 06:32:52;;;;;;;8.70;5.60;;;3.60;64.40;;;6.47;51.35;102657.66;4862637;29;20218;-59
2021/12/21 06:35:20;;;;;;;6.10;5.40;;;3.60;64.60;;;6.46;51.61;102657.78;4863347;29;20198;-60
2021/12/21 06:37:49;;;;;;;6.53;5.10;;;3.50;64.80;;;6.41;51.53;102652.84;4863068;29;20197;-61
2021/12/21 06:40:19;;;;;;;6.97;6.27;;;3.50;64.70;;;6.36;51.93;102660.16;4863187;29;20582;-58
2021/12/21 06:42:50;;;;;;;7.10;5.43;;;3.40;64.90;;;6.33;51.58;102659.50;4862782;29;20248;-61
2021/12/21 06:51:17;;;;;;;9.77;6.37;;;3.40;65.70;;;6.28;52.85;102666.78;4805898;29;20234;-64
2021/12/21 06:53:49;;;;;;;6.13;5.53;;;3.40;66.40;;;6.31;53.18;102662.22;4805811;29;20246;-63
2021/12/21 06:56:22;;;;;;;8.53;7.57;;;3.50;66.40;;;6.34;52.70;102659.41;4805890;29;20205;-60
2021/12/21 06:58:50;;;;;;;8.03;6.50;;;3.50;66.10;;;6.39;52.76;102654.72;4805621;29;20215;-63
2021/12/21 07:01:19;;;;;;;6.77;6.07;;;3.60;65.90;;;6.40;52.66;102656.38;4817331;29;20604;-62
2021/12/21 07:03:47;;;;;;;6.80;6.10;;;3.60;65.40;;;6.40;51.72;102661.59;4823084;29;20236;-64
2021/12/21 07:06:18;;;;;;;8.60;6.03;;;3.60;65.00;;;6.36;51.56;102654.06;4822027;29;20223;-60
2021/12/21 07:08:55;;;;;;;8.60;6.67;;;3.50;64.70;;;6.31;52.02;102659.59;4821399;29;20289;-61
2021/12/21 07:19:29;;;;;;;9.87;8.03;;;3.20;65.10;;;6.02;51.88;102660.63;4823626;29;20691;-63
2021/12/21 07:21:59;;;;;;;9.30;7.37;;;3.10;65.70;;;6.01;52.26;102661.56;4823880;29;20252;-63
2021/12/21 07:24:27;;;;;;;10.00;7.70;;;3.10;66.30;;;6.00;53.06;102662.50;4827600;29;20252;-61
2021/12/21 07:26:56;;;;;;;10.63;7.90;;;3.10;66.70;;;6.00;52.56;102657.28;4856676;29;20648;-62
2021/12/21 07:29:24;;;;;;;11.47;8.00;;;3.00;66.70;;;6.00;53.59;102657.28;4854434;29;20294;-64
2021/12/21 07:31:52;;;;;;;11.27;8.43;;;3.00;66.70;;;5.98;53.56;102656.53;4847018;29;20243;-62
2021/12/21 07:34:24;;;;;;;12.73;8.83;;;3.00;66.80;;;5.97;52.93;102666.16;4852899;29;20223;-63
2021/12/21 07:36:51;;;;;;;10.23;8.43;;;3.00;66.90;;;5.91;53.90;102665.69;4852790;29;20225;-62
2021/12/21 07:39:20;;;;;;;9.03;7.80;;;3.00;67.00;;;5.80;54.08;102670.75;4860358;29;20198;-63
2021/12/21 07:42:12;;;;;;;12.50;8.90;;;3.00;67.30;;;5.68;53.60;102676.72;4844852;29;20206;-61
2021/12/21 07:44:40;;;;;;;11.20;8.00;;;2.90;67.00;;;5.61;54.35;102672.81;4852221;29;20567;-62
2021/12/21 07:47:07;;;;;;;10.63;8.40;;;2.80;67.00;;;5.54;54.33;102674.13;4858963;29;20271;-63
2021/12/21 07:50:11;;;;;;;7.87;6.80;;;2.70;67.30;;;5.45;54.42;102672.91;4855991;29;20593;-65
2021/12/21 07:52:56;;;;;;;11.03;7.97;;;2.70;67.50;;;5.41;54.45;102677.47;4844405;29;20242;-64
2021/12/21 07:55:23;;;;;;;10.90;8.27;;;2.60;67.80;;;5.38;54.37;102680.28;4860698;29;20243;-62
2021/12/21 07:57:53;;;;;;;11.83;9.67;;;2.60;68.20;;;5.40;55.92;102678.41;4843097;29;20217;-60
2021/12/21 08:00:21;;;;;;;14.07;10.50;;;2.50;69.20;;;5.52;54.84;102678.56;4840991;29;20224;-63
2021/12/21 08:02:49;;;;;;;14.47;10.90;;;2.60;70.10;;;5.68;55.80;102681.94;4842895;29;20279;-62
2021/12/21 08:05:18;;;;;;;12.73;9.93;;;2.80;70.20;;;5.86;55.27;102675.59;4847855;29;20220;-63
2021/12/21 08:07:52;;;;;;;13.17;9.97;;;2.90;69.60;;;6.02;54.18;102678.91;4859445;29;20645;-61
2021/12/21 08:10:28;;;;;;;12.37;9.03;;;3.00;68.80;;;6.10;53.58;102685.34;4858773;29;20207;-63
2021/12/21 08:13:10;;;;;;;10.90;9.20;;;3.10;67.70;;;6.15;53.32;102682.44;4860147;29;20229;-62
2021/12/21 08:15:38;;;;;;;11.17;8.83;;;3.20;67.50;;;6.23;53.73;102680.16;4856734;29;20286;-62
2021/12/21 08:18:06;;;;;;;11.33;8.03;;;3.30;67.00;;;6.30;53.17;102691.09;4855556;29;20276;-63
2021/12/21 08:20:39;;;;;;;10.33;8.00;;;3.40;66.40;;;6.31;52.91;102684.91;4850435;29;20197;-64
2021/12/21 08:23:08;;;;;;;12.13;8.40;;;3.30;65.40;;;6.27;52.87;102681.66;4858980;29;20247;-66
2021/12/21 08:25:37;;;;;;;12.00;8.73;;;3.30;64.90;;;6.20;51.64;102675.16;4859159;29;20571;-65
2021/12/21 08:28:09;;;;;;;8.87;7.90;;;3.20;64.90;;;6.13;52.48;102684.31;4861548;29;20583;-66
2021/12/21 08:30:37;;;;;;;11.83;9.70;;;3.10;65.90;;;6.10;52.13;102679.28;4860513;29;20215;-66
2021/12/21 08:33:05;;;;;;;11.47;9.60;;;3.00;66.20;;;6.10;52.59;102685.34;4859638;29;20230;-65
2021/12/21 08:35:33;;;;;;;10.60;8.30;;;3.00;67.10;;;6.16;53.36;102683.28;4860378;29;20240;-65
2021/12/21 08:38:05;;;;;;;10.37;8.63;;;3.10;67.60;;;6.25;53.42;102683.53;4858561;29;20554;-67
2021/12/21 08:40:39;;;;;;;14.73;8.47;;;3.20;67.50;;;6.34;52.56;102677.72;4857314;29;20295;-65
2021/12/21 08:43:13;;;;;;;13.53;8.87;;;3.30;67.10;;;6.40;52.56;102674.69;4855872;29;20751;-65
2021/12/21 08:45:45;;;;;;;15.63;11.40;;;3.40;66.70;;;6.47;52.98;102670.72;4857550;29;20228;-66
2021/12/21 08:48:14;;;;;;;14.33;10.60;;;3.50;66.70;;;6.58;52.42;102668.28;4857549;29;20302;-64
2021/12/21 08:50:43;;;;;;;16.50;10.13;;;3.70;66.40;;;6.66;52.07;102665.97;4842285;29;20277;-65
2021/12/21 08:53:24;;;;;;;13.40;8.90;;;3.80;66.10;;;6.76;51.72;102668.81;4855458;29;20224;-64
2021/12/21 08:55:56;;;;;;;18.00;10.30;;;3.90;65.30;;;6.83;51.82;102672.69;4853940;29;20197;-62
2021/12/21 08:58:26;;;;;;;12.07;8.97;;;4.00;65.10;;;6.92;51.58;102674.69;4853228;29;20205;-61
2021/12/21 09:01:00;;;;;;;11.37;8.10;;;4.10;64.70;;;6.98;51.22;102669.06;4849756;29;20299;-64
2021/12/21 09:03:27;;;;;;;12.35;9.30;;;4.10;64.20;;;7.10;50.93;102667.38;4850107;29;20451;-61
2021/12/21 09:05:56;;;;;;;8.70;7.80;;;4.20;63.90;;;7.12;50.47;102665.50;4854507;29;20190;-60
2021/12/21 09:08:23;;;;;;;14.48;11.30;;;4.20;63.70;;;7.61;49.85;102668.19;4847218;29;20487;-62
2021/12/21 09:10:52;;;;;;;12.80;8.67;;;4.20;64.20;;;7.45;50.05;102673.66;4854729;29;20226;-62
2021/12/21 09:13:19;;;;;;;12.77;9.77;;;4.20;64.30;;;7.37;50.38;102660.25;4853761;29;20220;-59
2021/12/21 09:15:51;;;;;;;10.33;8.50;;;4.30;64.20;;;7.34;50.65;102665.72;4851381;29;20199;-64
2021/12/21 09:18:19;;;;;;;10.13;8.30;;;4.30;64.00;;;7.21;49.94;102670.94;4855348;29;20510;-61
2021/12/21 09:20:48;;;;;;;12.50;9.50;;;4.20;63.40;;;7.05;50.12;102666.84;4836315;29;20206;-63
2021/12/21 09:23:40;;;;;;;12.03;9.37;;;4.20;63.30;;;6.85;51.25;102664.75;4841872;29;20241;-65
2021/12/21 09:26:13;;;;;;;14.97;10.33;;;4.10;63.50;;;6.72;51.39;102667.34;4858554;29;20194;-64
2021/12/21 09:28:57;;;;;;;13.67;9.60;;;3.90;63.70;;;6.60;51.56;102663.78;4855792;29;20623;-61
2021/12/21 09:31:26;;;;;;;12.67;9.83;;;3.80;64.00;;;6.51;51.99;102668.78;4850805;29;20254;-60
2021/12/21 09:33:54;;;;;;;14.40;10.37;;;3.70;64.40;;;6.42;51.82;102675.41;4853037;29;20351;-60
2021/12/21 09:36:44;;;;;;;13.33;9.53;;;3.60;64.80;;;6.30;52.16;102675.41;4857774;29;20260;-62
2021/12/21 09:39:13;;;;;;;15.33;11.17;;;3.50;65.00;;;6.27;52.59;102676.44;4857836;29;20231;-65
2021/12/21 09:41:44;;;;;;;12.37;10.00;;;3.40;65.20;;;6.22;51.96;102683.72;4856453;29;20212;-62
2021/12/21 09:44:13;;;;;;;14.83;11.07;;;3.40;65.40;;;6.22;52.43;102678.50;4854489;29;20658;-60
2021/12/21 09:46:41;;;;;;;14.47;10.10;;;3.30;65.60;;;6.27;52.04;102686.88;4854064;29;20204;-63
2021/12/21 09:49:11;;;;;;;16.00;10.77;;;3.30;66.00;;;6.25;51.81;102694.00;4851576;29;20339;-62
2021/12/21 09:51:39;;;;;;;13.77;10.60;;;3.30;65.80;;;6.20;51.95;102690.84;4856576;29;20220;-62
2021/12/21 09:54:08;;;;;;;13.83;10.07;;;3.30;65.60;;;6.16;52.42;102693.75;4851384;29;20411;-61
2021/12/21 09:56:35;;;;;;;13.00;9.80;;;3.20;65.60;;;6.13;52.30;102689.56;4858556;29;20298;-62
2021/12/21 09:59:03;;;;;;;11.87;9.40;;;3.20;65.70;;;6.14;52.66;102691.22;4856150;29;20198;-60
2021/12/21 10:01:30;;;;;;;11.97;8.53;;;3.20;65.80;;;6.13;53.07;102686.94;4857253;29;20272;-61
2021/12/21 10:03:59;;;;;;;7.77;6.53;;;3.20;65.80;;;6.17;52.36;102685.78;4856082;29;20240;-59
2021/12/21 10:06:28;;;;;;;9.40;7.63;;;3.20;66.10;;;6.18;52.35;102692.69;4858232;29;20273;-62
2021/12/21 10:09:06;;;;;;;10.33;7.23;;;3.20;66.20;;;6.20;52.88;102685.59;4848232;29;20205;-62
2021/12/21 10:11:53;;;;;;;9.80;6.90;;;3.30;67.10;;;6.29;52.50;102690.25;4844487;29;20247;-58
2021/12/21 10:14:25;;;;;;;10.87;7.90;;;3.30;66.60;;;6.52;52.50;102692.19;4855860;29;20756;-61
2021/12/21 10:17:02;;;;;;;10.13;6.33;;;3.40;67.10;;;6.74;52.85;102689.84;4859858;29;20283;-61
2021/12/21 10:19:32;;;;;;;11.20;7.73;;;3.50;67.30;;;6.87;52.33;102686.44;4859466;29;20256;-59
2021/12/21 10:22:09;;;;;;;11.53;8.33;;;3.60;66.90;;;6.90;51.78;102688.81;4859893;29;20198;-62
2021/12/21 10:24:47;;;;;;;11.27;7.50;;;3.70;66.70;;;6.87;51.88;102689.03;4858724;29;20241;-61
2021/12/21 10:27:18;;;;;;;15.33;9.50;;;3.80;66.70;;;6.81;52.65;102685.88;4857766;29;20209;-61
2021/12/21 10:29:48;;;;;;;12.03;8.10;;;3.80;66.50;;;6.78;52.38;102698.31;4859745;29;20575;-62
2021/12/21 10:32:19;;;;;;;12.50;8.60;;;3.80;66.50;;;6.77;52.50;102692.25;4860001;29;20221;-61
2021/12/21 10:35:00;;;;;;;9.67;7.60;;;3.80;66.70;;;6.78;53.15;102693.94;4860423;29;20622;-64
2021/12/21 10:37:31;;;;;;;13.20;8.97;;;3.80;66.90;;;6.83;52.85;102697.09;4859982;29;20603;-61
2021/12/21 10:40:09;;;;;;;13.57;8.77;;;3.80;67.00;;;6.87;52.36;102702.13;4859932;29;20652;-63
2021/12/21 10:42:51;;;;;;;12.07;9.00;;;3.80;67.10;;;6.90;52.77;102697.50;4859008;29;20227;-63
2021/12/21 10:45:29;;;;;;;14.50;10.83;;;3.80;67.30;;;6.98;53.15;102704.84;4861795;29;20225;-62
2021/12/21 10:47:58;;;;;;;14.60;9.43;;;3.90;67.90;;;7.05;53.16;102706.13;4863592;29;20543;-62
2021/12/21 10:50:29;;;;;;;15.40;9.90;;;3.90;67.80;;;7.09;52.95;102704.97;4863152;29;20277;-63
2021/12/21 10:52:58;;;;;;;13.07;9.13;;;4.00;67.60;;;7.13;53.21;102694.19;4862398;29;20229;-62
2021/12/21 10:55:29;;;;;;;11.80;9.23;;;4.10;67.50;;;7.20;53.21;102695.44;4860965;29;20907;-62
2021/12/21 10:58:08;;;;;;;12.20;8.83;;;4.10;67.60;;;7.27;52.71;102690.66;4857917;29;20665;-65
2021/12/21 11:00:40;;;;;;;13.43;9.60;;;4.20;67.70;;;7.35;52.90;102683.09;4838229;29;20210;-64
2021/12/21 11:03:08;;;;;;;16.20;11.47;;;4.30;67.50;;;7.41;52.81;102685.28;4836391;29;22206;-65
2021/12/21 11:05:38;;;;;;;12.10;8.73;;;4.30;67.50;;;7.48;52.59;102678.69;4836328;29;20297;-63
2021/12/21 11:08:08;;;;;;;26.17;17.87;;;4.40;67.50;;;7.51;52.47;102678.50;4835899;29;20284;-64
2021/12/21 11:10:37;;;;;;;14.20;10.43;;;4.40;67.20;;;7.60;52.35;102679.63;4836458;29;20292;-62
2021/12/21 11:13:11;;;;;;;11.77;8.30;;;4.50;67.30;;;7.63;52.39;102677.59;4835178;29;20228;-62
2021/12/21 11:15:42;;;;;;;13.77;8.97;;;4.60;67.10;;;7.62;52.40;102673.31;4837899;29;20217;-65
2021/12/21 11:18:13;;;;;;;11.27;8.73;;;4.60;66.80;;;7.63;52.09;102674.16;4835154;29;20670;-63
2021/12/21 11:20:45;;;;;;;15.90;10.07;;;4.60;66.40;;;7.64;52.34;102668.81;4840353;29;20206;-64
2021/12/21 11:23:14;;;;;;;11.90;8.60;;;4.70;66.60;;;7.69;52.13;102666.69;4839849;29;20264;-65
2021/12/21 11:25:46;;;;;;;11.50;9.87;;;4.70;66.60;;;7.71;52.23;102659.56;4844915;29;20741;-63
2021/12/21 11:28:22;;;;;;;13.03;8.60;;;4.70;66.60;;;7.77;51.99;102664.38;4862128;29;20205;-62
2021/12/21 11:30:52;;;;;;;11.23;8.13;;;4.70;66.60;;;7.82;52.10;102662.25;4862035;29;20571;-64
2021/12/21 11:33:22;;;;;;;13.10;8.40;;;4.80;66.60;;;7.80;51.96;102656.28;4861295;29;20240;-63
2021/12/21 11:38:38;;;;;;;13.13;9.47;;;4.80;66.30;;;7.99;52.33;102653.19;4859046;29;20200;-62
2021/12/21 11:41:06;;;;;;;12.37;9.10;;;5.00;67.00;;;8.64;52.82;102646.59;4861599;29;20318;-62
2021/12/21 11:43:47;;;;;;;11.88;9.60;;;5.30;68.30;;;9.67;51.60;102638.56;4859320;29;20486;-63